Time;durP1;ratioP1;P1;durP2;ratioP2;P2;SDS_P1;SDS_P2;PMS_P1;PMS_P2;Temp;Humidity;BMP_temperature;BMP_pressure;BME280_temperature;BME280_humidity;BME280_pressure;Samples;Min_cycle;Max_cycle;Signal;HPM_P1;HPM_P2
2021/04/12 00:00:31;;;;;;;;;;;3.30;96.40;;;;;;5033276;28;19914;-70
2021/04/12 00:03:01;;;;;;;;;;;3.30;96.50;;;;;;5019139;28;19957;-71
2021/04/12 00:05:42;;;;;;;;;;;3.20;96.50;;;;;;5035603;28;19921;-70
2021/04/12 00:08:10;;;;;;;;;;;3.20;96.50;;;;;;5035548;28;20199;-70
2021/04/12 00:10:42;;;;;;;;;;;3.10;96.50;;;;;;5036248;28;20318;-69
2021/04/12 00:13:08;;;;;;;;;;;3.00;96.50;;;;;;5035130;28;20278;-70
2021/04/12 00:15:42;;;;;;;;;;;3.00;96.40;;;;;;5036881;28;19975;-69
2021/04/12 00:18:31;;;;;;;;;;;3.00;96.40;;;;;;5034584;28;19913;-70
2021/04/12 00:21:04;;;;;;;;;;;3.00;96.30;;;;;;5032073;28;19917;-70
2021/04/12 00:23:37;;;;;;;;;;;3.00;96.70;;;;;;5031346;28;19917;-70
2021/04/12 00:26:09;;;;;;;;;;;3.00;96.40;;;;;;5037678;28;19924;-71
2021/04/12 00:28:46;;;;;;;;;;;3.10;96.40;;;;;;5037619;28;19995;-70
2021/04/12 00:31:34;;;;;;;;;;;2.80;96.70;;;;;;5030974;28;19978;-71
2021/04/12 00:34:03;;;;;;;;;;;2.70;96.50;;;;;;5015771;28;20079;-70
2021/04/12 00:36:29;;;;;;;;;;;2.60;96.50;;;;;;5037589;28;19913;-71
2021/04/12 00:38:54;;;;;;;;;;;2.60;96.40;;;;;;5036363;28;19913;-71
2021/04/12 00:41:38;;;;;;;;;;;2.60;96.40;;;;;;5037412;28;19917;-71
2021/04/12 00:44:23;;;;;;;;;;;2.50;96.50;;;;;;5038043;28;19910;-71
2021/04/12 00:47:07;;;;;;;;;;;2.40;96.50;;;;;;5036841;28;19921;-71
2021/04/12 00:49:48;;;;;;;;;;;2.30;96.60;;;;;;5035855;28;19921;-71
2021/04/12 00:52:28;;;;;;;;;;;2.30;96.50;;;;;;5036917;28;19931;-72
2021/04/12 00:55:00;;;;;;;;;;;2.20;96.60;;;;;;5036167;28;19917;-71
2021/04/12 00:57:28;;;;;;;;;;;2.10;96.70;;;;;;5037457;28;19967;-71
2021/04/12 01:00:06;;;;;;;;;;;1.90;96.80;;;;;;5037880;28;20318;-71
2021/04/12 01:02:37;;;;;;;;;;;1.80;96.60;;;;;;5033520;28;19917;-72
2021/04/12 01:05:16;;;;;;;;;;;1.70;96.60;;;;;;5020321;28;20366;-70
2021/04/12 01:07:44;;;;;;;;;;;1.50;96.50;;;;;;5033839;28;19913;-72
2021/04/12 01:10:28;;;;;;;;;;;1.40;96.40;;;;;;5036901;28;19917;-72
2021/04/12 01:13:06;;;;;;;;;;;1.40;96.70;;;;;;5036976;28;20222;-71
2021/04/12 01:15:34;;;;;;;;;;;1.30;96.60;;;;;;5035971;28;19913;-72
2021/04/12 01:18:03;;;;;;;;;;;1.20;96.50;;;;;;5035290;28;19967;-71
2021/04/12 01:20:40;;;;;;;;;;;1.20;96.40;;;;;;5036991;28;19920;-71
2021/04/12 01:23:34;;;;;;;;;;;1.10;96.40;;;;;;5028028;28;20331;-70
2021/04/12 01:26:18;;;;;;;;;;;1.10;96.30;;;;;;5032605;28;19975;-70
2021/04/12 01:28:46;;;;;;;;;;;1.00;96.50;;;;;;5034903;28;19917;-71
2021/04/12 01:31:50;;;;;;;;;;;0.90;96.40;;;;;;5036750;28;20325;-70
2021/04/12 01:34:28;;;;;;;;;;;0.80;96.40;;;;;;4994107;28;19918;-69
2021/04/12 01:37:12;;;;;;;;;;;0.80;96.30;;;;;;4978010;28;20007;-72
2021/04/12 01:39:41;;;;;;;;;;;0.70;96.20;;;;;;5016613;28;20008;-69
2021/04/12 01:42:06;;;;;;;;;;;0.70;96.20;;;;;;5035724;28;19919;-71
2021/04/12 01:44:48;;;;;;;;;;;0.70;96.30;;;;;;5039555;28;19918;-70
2021/04/12 01:47:20;;;;;;;;;;;0.60;96.20;;;;;;5027845;28;19917;-69
2021/04/12 01:49:49;;;;;;;;;;;0.60;96.20;;;;;;5028654;28;20310;-69
2021/04/12 01:52:24;;;;;;;;;;;0.60;96.20;;;;;;5023515;28;19969;-71
2021/04/12 01:55:09;;;;;;;;;;;0.50;96.20;;;;;;5028253;28;19917;-71
2021/04/12 01:57:40;;;;;;;;;;;0.60;96.20;;;;;;5025536;28;20218;-69
2021/04/12 02:00:25;;;;;;;;;;;0.50;96.20;;;;;;5035832;28;20306;-70
2021/04/12 02:03:13;;;;;;;;;;;0.50;96.30;;;;;;5036429;28;19913;-70
2021/04/12 02:05:48;;;;;;;;;;;0.50;96.20;;;;;;5015675;28;19913;-71
2021/04/12 02:08:19;;;;;;;;;;;0.40;96.30;;;;;;5034147;28;19909;-71
2021/04/12 02:10:45;;;;;;;;;;;0.40;96.30;;;;;;5033953;28;19921;-72
2021/04/12 02:13:22;;;;;;;;;;;0.40;96.20;;;;;;5035965;28;19921;-71
2021/04/12 02:15:58;;;;;;;;;;;0.40;96.20;;;;;;5031824;28;20024;-71
2021/04/12 02:18:36;;;;;;;;;;;0.40;96.30;;;;;;5034500;28;19913;-71
2021/04/12 02:21:04;;;;;;;;;;;0.40;96.30;;;;;;5029301;28;19913;-71
2021/04/12 02:23:36;;;;;;;;;;;0.40;96.30;;;;;;5024000;28;19917;-71
2021/04/12 02:26:25;;;;;;;;;;;0.40;96.30;;;;;;5019418;28;19920;-71
2021/04/12 02:28:53;;;;;;;;;;;0.40;96.30;;;;;;5012705;28;19913;-71
2021/04/12 02:31:23;;;;;;;;;;;0.40;96.40;;;;;;5035620;28;20258;-70
2021/04/12 02:34:02;;;;;;;;;;;0.40;96.30;;;;;;5034402;28;19917;-71
2021/04/12 02:36:39;;;;;;;;;;;0.40;96.40;;;;;;5032556;28;19910;-70
2021/04/12 02:39:25;;;;;;;;;;;0.30;96.30;;;;;;5033194;28;19917;-71
2021/04/12 02:41:51;;;;;;;;;;;0.30;96.30;;;;;;5025173;28;20382;-71
2021/04/12 02:44:19;;;;;;;;;;;0.30;96.30;;;;;;5037279;28;20019;-71
2021/04/12 02:46:47;;;;;;;;;;;0.30;96.30;;;;;;5034707;28;19979;-71
2021/04/12 02:49:24;;;;;;;;;;;0.30;96.40;;;;;;5030952;28;20027;-72
2021/04/12 02:52:00;;;;;;;;;;;0.30;96.40;;;;;;5021318;28;19918;-72
2021/04/12 02:54:44;;;;;;;;;;;0.30;96.40;;;;;;5019516;28;19917;-71
2021/04/12 02:57:28;;;;;;;;;;;0.30;96.40;;;;;;5033032;28;20261;-72
2021/04/12 03:00:16;;;;;;;;;;;0.30;96.40;;;;;;5034615;28;19952;-72
2021/04/12 03:03:00;;;;;;;;;;;0.20;96.40;;;;;;5014667;28;19914;-71
2021/04/12 03:05:41;;;;;;;;;;;0.20;96.40;;;;;;5029649;28;19913;-71
2021/04/12 03:08:25;;;;;;;;;;;0.20;96.40;;;;;;5034162;28;19917;-71
2021/04/12 03:11:11;;;;;;;;;;;0.20;96.50;;;;;;5034416;28;19913;-71
2021/04/12 03:13:55;;;;;;;;;;;0.20;96.50;;;;;;5028236;28;20226;-71
2021/04/12 03:16:28;;;;;;;;;;;0.20;96.50;;;;;;5034720;28;20373;-70
2021/04/12 03:19:12;;;;;;;;;;;0.20;96.50;;;;;;5035219;28;19916;-71
2021/04/12 03:21:56;;;;;;;;;;;0.20;96.50;;;;;;5033688;28;20052;-71
2021/04/12 03:24:26;;;;;;;;;;;0.20;96.50;;;;;;5025161;28;19921;-71
2021/04/12 03:27:10;;;;;;;;;;;0.20;96.50;;;;;;5034594;28;19968;-72
2021/04/12 03:29:46;;;;;;;;;;;0.20;96.60;;;;;;5035674;28;19921;-72
2021/04/12 03:32:30;;;;;;;;;;;0.20;96.50;;;;;;5033122;28;20011;-72
2021/04/12 03:35:03;;;;;;;;;;;0.20;96.60;;;;;;5036776;28;19920;-72
2021/04/12 03:38:06;;;;;;;;;;;0.20;96.60;;;;;;5036589;28;19913;-72
2021/04/12 03:40:38;;;;;;;;;;;0.20;96.60;;;;;;4996580;28;19914;-71
2021/04/12 03:43:09;;;;;;;;;;;0.20;96.60;;;;;;5030594;28;20214;-71
2021/04/12 03:45:47;;;;;;;;;;;0.20;96.60;;;;;;5038061;28;19917;-70
2021/04/12 03:48:31;;;;;;;;;;;0.20;96.60;;;;;;5033865;28;19924;-72
2021/04/12 03:51:06;;;;;;;;;;;0.20;96.60;;;;;;5037617;28;19917;-71
2021/04/12 03:53:40;;;;;;;;;;;0.20;96.70;;;;;;5037106;28;20012;-72
2021/04/12 03:56:21;;;;;;;;;;;0.20;96.60;;;;;;5037027;28;20411;-70
2021/04/12 03:59:07;;;;;;;;;;;0.20;96.60;;;;;;5025998;28;19914;-70
2021/04/12 04:01:46;;;;;;;;;;;0.20;96.60;;;;;;5025396;28;20000;-70
2021/04/12 04:04:12;;;;;;;;;;;0.20;96.60;;;;;;5020791;28;19917;-71
2021/04/12 04:06:55;;;;;;;;;;;0.20;96.60;;;;;;5035293;28;19913;-71
2021/04/12 04:09:39;;;;;;;;;;;0.20;96.60;;;;;;5024193;28;19920;-72
2021/04/12 04:12:05;;;;;;;;;;;0.20;96.70;;;;;;5032063;28;19920;-71
2021/04/12 04:14:42;;;;;;;;;;;0.20;96.70;;;;;;5030034;28;20362;-72
2021/04/12 04:17:26;;;;;;;;;;;0.20;96.60;;;;;;5036466;28;19920;-71
2021/04/12 04:20:09;;;;;;;;;;;0.20;96.70;;;;;;5030359;28;19944;-72
2021/04/12 04:22:53;;;;;;;;;;;0.20;96.70;;;;;;5020781;28;19914;-72
2021/04/12 04:25:36;;;;;;;;;;;0.20;96.70;;;;;;5030628;28;19996;-71
2021/04/12 04:28:17;;;;;;;;;;;0.20;96.70;;;;;;5036852;28;19917;-69
2021/04/12 04:30:48;;;;;;;;;;;0.20;96.70;;;;;;5036861;28;20362;-69
2021/04/12 04:33:37;;;;;;;;;;;0.20;96.70;;;;;;5036988;28;19964;-69
2021/04/12 04:36:03;;;;;;;;;;;0.20;96.70;;;;;;5030177;28;20267;-70
2021/04/12 04:38:50;;;;;;;;;;;0.20;96.70;;;;;;5035223;28;19920;-72
2021/04/12 04:41:34;;;;;;;;;;;0.20;96.70;;;;;;5033232;28;20201;-71
2021/04/12 04:44:18;;;;;;;;;;;0.20;96.70;;;;;;5037554;28;19956;-72
2021/04/12 04:46:49;;;;;;;;;;;0.20;96.70;;;;;;5035313;28;19917;-71
2021/04/12 04:49:32;;;;;;;;;;;0.20;96.70;;;;;;5036894;28;20335;-72
2021/04/12 04:52:00;;;;;;;;;;;0.20;96.70;;;;;;5033656;28;19913;-70
2021/04/12 04:54:45;;;;;;;;;;;0.20;96.70;;;;;;5031873;28;19917;-71
2021/04/12 04:57:17;;;;;;;;;;;0.20;96.70;;;;;;5041861;28;19941;-70
2021/04/12 05:00:01;;;;;;;;;;;0.20;96.70;;;;;;5029984;28;20244;-71
2021/04/12 05:02:26;;;;;;;;;;;0.20;96.70;;;;;;5032693;28;20237;-71
2021/04/12 05:05:10;;;;;;;;;;;0.20;96.70;;;;;;5036832;28;19920;-70
2021/04/12 05:07:54;;;;;;;;;;;0.20;96.70;;;;;;5031895;28;20365;-72
2021/04/12 05:10:20;;;;;;;;;;;0.20;96.70;;;;;;5025034;28;20192;-71
2021/04/12 05:13:09;;;;;;;;;;;0.20;96.70;;;;;;5022538;28;19967;-71
2021/04/12 05:15:50;;;;;;;;;;;0.20;96.70;;;;;;5017706;28;19913;-71
2021/04/12 05:18:34;;;;;;;;;;;0.20;96.70;;;;;;5037259;28;20201;-72
2021/04/12 05:21:24;;;;;;;;;;;0.20;96.60;;;;;;5037072;28;19913;-72
2021/04/12 05:23:53;;;;;;;;;;;0.20;96.70;;;;;;5036260;28;19996;-71
2021/04/12 05:26:51;;;;;;;;;;;0.20;96.60;;;;;;5034513;28;19913;-72
2021/04/12 05:29:25;;;;;;;;;;;0.20;96.60;;;;;;5025201;28;20010;-70
2021/04/12 05:31:51;;;;;;;;;;;0.20;96.60;;;;;;5036504;28;19913;-72
2021/04/12 05:34:35;;;;;;;;;;;0.20;96.60;;;;;;5037044;28;19913;-72
2021/04/12 05:37:02;;;;;;;;;;;0.20;96.70;;;;;;5035554;28;19913;-72
2021/04/12 05:39:47;;;;;;;;;;;0.20;96.70;;;;;;5037056;28;19916;-71
2021/04/12 05:42:17;;;;;;;;;;;0.20;96.60;;;;;;5036746;28;19913;-72
2021/04/12 05:44:46;;;;;;;;;;;0.20;96.60;;;;;;5036033;28;20418;-72
2021/04/12 05:47:11;;;;;;;;;;;0.20;96.70;;;;;;5036344;28;19921;-72
2021/04/12 05:49:55;;;;;;;;;;;0.20;96.70;;;;;;5036357;28;19917;-72
2021/04/12 05:52:21;;;;;;;;;;;0.20;96.60;;;;;;5034969;28;19928;-72
2021/04/12 05:54:53;;;;;;;;;;;0.30;96.60;;;;;;5036626;28;19909;-72
2021/04/12 05:57:34;;;;;;;;;;;0.30;96.60;;;;;;5033929;28;19970;-72
2021/04/12 06:00:02;;;;;;;;;;;0.30;96.60;;;;;;5036487;28;19924;-72
2021/04/12 06:02:37;;;;;;;;;;;0.20;96.50;;;;;;5036656;28;19920;-72
2021/04/12 06:05:05;;;;;;;;;;;0.30;96.60;;;;;;5036517;28;19913;-74
2021/04/12 06:07:31;;;;;;;;;;;0.20;96.50;;;;;;5033938;28;20306;-73
2021/04/12 06:10:16;;;;;;;;;;;0.20;96.50;;;;;;5036502;28;19916;-71
2021/04/12 06:13:00;;;;;;;;;;;0.20;96.50;;;;;;5033613;28;19917;-72
2021/04/12 06:15:44;;;;;;;;;;;0.20;96.60;;;;;;5036130;28;19917;-72
2021/04/12 06:18:28;;;;;;;;;;;0.20;96.50;;;;;;5036340;28;19913;-72
2021/04/12 06:21:05;;;;;;;;;;;0.20;96.50;;;;;;5035729;28;20294;-72
2021/04/12 06:23:43;;;;;;;;;;;0.20;96.40;;;;;;5035134;28;20210;-72
2021/04/12 06:26:25;;;;;;;;;;;0.20;96.50;;;;;;5034773;28;19943;-72
2021/04/12 06:28:51;;;;;;;;;;;0.20;96.50;;;;;;5036305;28;19980;-72
2021/04/12 06:31:25;;;;;;;;;;;0.20;96.50;;;;;;5035612;28;20313;-72
2021/04/12 06:34:07;;;;;;;;;;;0.30;96.50;;;;;;5036171;28;20317;-72
2021/04/12 06:36:47;;;;;;;;;;;0.30;96.50;;;;;;5035681;28;19921;-72
2021/04/12 06:39:22;;;;;;;;;;;0.30;96.40;;;;;;5035035;28;19953;-72
2021/04/12 06:42:00;;;;;;;;;;;0.30;96.40;;;;;;5035756;28;19948;-71
2021/04/12 06:44:44;;;;;;;;;;;0.30;96.40;;;;;;5033145;28;20011;-73
2021/04/12 06:47:19;;;;;;;;;;;0.30;96.40;;;;;;5027543;28;20257;-72
2021/04/12 06:49:47;;;;;;;;;;;0.30;96.40;;;;;;5033100;28;19955;-73
2021/04/12 06:52:31;;;;;;;;;;;0.30;96.40;;;;;;5034029;28;20364;-73
2021/04/12 06:55:16;;;;;;;;;;;0.30;96.40;;;;;;5034938;28;19966;-73
2021/04/12 06:57:42;;;;;;;;;;;0.30;96.40;;;;;;5035137;28;19913;-73
2021/04/12 07:00:23;;;;;;;;;;;0.30;96.40;;;;;;5035832;28;19962;-72
2021/04/12 07:03:07;;;;;;;;;;;0.30;96.30;;;;;;5035493;28;19914;-72
2021/04/12 07:05:38;;;;;;;;;;;0.30;96.30;;;;;;5038145;28;19913;-73
2021/04/12 07:08:19;;;;;;;;;;;0.30;96.40;;;;;;5028675;28;19967;-72
2021/04/12 07:11:00;;;;;;;;;;;0.40;96.30;;;;;;5032341;28;19921;-72
2021/04/12 07:13:42;;;;;;;;;;;0.50;96.40;;;;;;5038981;28;19924;-72
2021/04/12 07:16:26;;;;;;;;;;;0.50;96.20;;;;;;5038904;28;19913;-72
2021/04/12 07:19:09;;;;;;;;;;;0.50;96.30;;;;;;5039518;28;20306;-71
2021/04/12 07:21:53;;;;;;;;;;;0.50;96.20;;;;;;5039478;28;20000;-70
2021/04/12 07:24:33;;;;;;;;;;;0.60;96.20;;;;;;5038571;28;19917;-70
2021/04/12 07:27:10;;;;;;;;;;;0.70;96.40;;;;;;5039682;28;19917;-70
2021/04/12 07:29:54;;;;;;;;;;;0.70;96.20;;;;;;5039419;28;19917;-71
2021/04/12 07:32:38;;;;;;;;;;;0.90;96.40;;;;;;5038858;28;19913;-72
2021/04/12 07:35:16;;;;;;;;;;;1.00;96.20;;;;;;5028564;28;20378;-72
2021/04/12 07:38:00;;;;;;;;;;;1.10;96.30;;;;;;5028845;28;20040;-72
2021/04/12 07:40:38;;;;;;;;;;;1.20;96.70;;;;;;5039217;28;19959;-73
2021/04/12 07:43:22;;;;;;;;;;;1.30;96.90;;;;;;5038720;28;20314;-73
2021/04/12 07:45:58;;;;;;;;;;;1.20;97.20;;;;;;5038863;28;19913;-71
2021/04/12 07:48:49;;;;;;;;;;;1.20;98.00;;;;;;5039325;28;19913;-73
2021/04/12 07:51:33;;;;;;;;;;;1.10;97.60;;;;;;5038619;28;20199;-72
2021/04/12 07:53:59;;;;;;;;;;;1.10;97.30;;;;;;5036729;28;19929;-72
2021/04/12 07:56:43;;;;;;;;;;;1.30;97.80;;;;;;5038524;28;20051;-72
2021/04/12 07:59:24;;;;;;;;;;;1.30;98.00;;;;;;5036629;28;19918;-72
2021/04/12 08:02:08;;;;;;;;;;;1.30;97.80;;;;;;5037857;28;20310;-71
2021/04/12 08:04:52;;;;;;;;;;;1.30;97.70;;;;;;5035116;28;19928;-71
2021/04/12 08:07:36;;;;;;;;;;;1.20;97.80;;;;;;5020150;28;20282;-71
2021/04/12 08:10:20;;;;;;;;;;;1.10;97.70;;;;;;5018790;28;19917;-71
2021/04/12 08:12:46;;;;;;;;;;;1.00;97.50;;;;;;5037096;28;20337;-72
2021/04/12 08:15:20;;;;;;;;;;;1.10;97.50;;;;;;5037370;28;19909;-71
2021/04/12 08:17:46;;;;;;;;;;;1.10;97.50;;;;;;5038193;28;20012;-72
2021/04/12 08:20:15;;;;;;;;;;;1.10;97.60;;;;;;5038771;28;20006;-71
2021/04/12 08:22:58;;;;;;;;;;;1.00;97.70;;;;;;5035806;28;20023;-72
2021/04/12 08:25:42;;;;;;;;;;;0.80;97.30;;;;;;5038428;28;19913;-74
2021/04/12 08:28:31;;;;;;;;;;;0.80;97.10;;;;;;5038373;28;19917;-72
2021/04/12 08:31:23;;;;;;;;;;;0.70;97.20;;;;;;5035339;28;20298;-71
2021/04/12 08:33:54;;;;;;;;;;;0.80;97.00;;;;;;5018712;28;19921;-72
2021/04/12 08:36:26;;;;;;;;;;;0.80;96.90;;;;;;5024951;28;19920;-71
2021/04/12 08:39:00;;;;;;;;;;;0.90;97.60;;;;;;5027325;28;19913;-71
2021/04/12 08:41:40;;;;;;;;;;;1.00;97.40;;;;;;5037878;28;19940;-72
2021/04/12 08:44:26;;;;;;;;;;;1.20;97.20;;;;;;5032524;28;20302;-72
2021/04/12 08:47:02;;;;;;;;;;;1.40;97.70;;;;;;5031011;28;20215;-72
2021/04/12 08:49:46;;;;;;;;;;;1.40;97.70;;;;;;5038113;28;20214;-72
2021/04/12 08:52:27;;;;;;;;;;;1.60;98.00;;;;;;5036163;28;19921;-72
2021/04/12 08:54:55;;;;;;;;;;;1.80;98.00;;;;;;5038147;28;19909;-71
2021/04/12 08:57:24;;;;;;;;;;;2.10;98.00;;;;;;5037405;28;19920;-73
2021/04/12 08:59:58;;;;;;;;;;;2.30;98.00;;;;;;5037653;28;19940;-72
2021/04/12 09:02:43;;;;;;;;;;;2.50;98.00;;;;;;5034569;28;19913;-72
2021/04/12 09:05:27;;;;;;;;;;;2.50;98.00;;;;;;5022009;28;20019;-72
2021/04/12 09:08:11;;;;;;;;;;;2.30;98.00;;;;;;5035712;28;19913;-72
2021/04/12 09:11:12;;;;;;;;;;;2.10;98.00;;;;;;5037121;28;19959;-73
2021/04/12 09:13:57;;;;;;;;;;;1.90;98.00;;;;;;5015442;28;19917;-71
2021/04/12 09:16:42;;;;;;;;;;;1.80;97.90;;;;;;5035779;28;20281;-71
2021/04/12 09:19:26;;;;;;;;;;;1.70;98.00;;;;;;5035754;28;20231;-71
2021/04/12 09:21:59;;;;;;;;;;;1.70;98.00;;;;;;5036142;28;19920;-71
2021/04/12 09:24:43;;;;;;;;;;;1.70;98.00;;;;;;5037005;28;19913;-71
2021/04/12 09:27:35;;;;;;;;;;;1.50;97.90;;;;;;5036181;28;19909;-71
2021/04/12 09:30:18;;;;;;;;;;;1.40;97.80;;;;;;5037417;28;19935;-71
2021/04/12 09:32:46;;;;;;;;;;;1.40;97.70;;;;;;5036725;28;19916;-71
2021/04/12 09:35:17;;;;;;;;;;;1.40;97.80;;;;;;5037151;28;19915;-71
2021/04/12 09:37:49;;;;;;;;;;;1.50;98.00;;;;;;5034358;28;19913;-71
2021/04/12 09:40:33;;;;;;;;;;;1.60;97.70;;;;;;5036575;28;20358;-71
2021/04/12 09:43:07;;;;;;;;;;;1.80;97.80;;;;;;5036064;28;19913;-71
2021/04/12 09:45:45;;;;;;;;;;;2.00;97.90;;;;;;5036150;28;20008;-70
2021/04/12 09:48:30;;;;;;;;;;;2.40;98.00;;;;;;5036168;28;20466;-71
2021/04/12 09:51:14;;;;;;;;;;;2.40;98.00;;;;;;5036414;28;19949;-71
2021/04/12 09:53:58;;;;;;;;;;;2.60;98.00;;;;;;5035423;28;20003;-70
2021/04/12 09:56:26;;;;;;;;;;;2.80;98.00;;;;;;5036611;28;19948;-71
2021/04/12 09:58:51;;;;;;;;;;;2.80;98.00;;;;;;5036071;28;19913;-71
2021/04/12 10:01:36;;;;;;;;;;;2.90;98.00;;;;;;5029482;28;19967;-70
2021/04/12 10:04:20;;;;;;;;;;;3.20;98.00;;;;;;5043346;28;19916;-71
2021/04/12 10:07:04;;;;;;;;;;;3.70;98.00;;;;;;5031083;28;19914;-70
2021/04/12 10:09:42;;;;;;;;;;;3.90;98.00;;;;;;5033500;28;20023;-70
2021/04/12 10:12:18;;;;;;;;;;;3.80;97.70;;;;;;5035291;28;19966;-71
2021/04/12 10:14:49;;;;;;;;;;;3.90;97.80;;;;;;5016892;28;19913;-71
2021/04/12 10:17:17;;;;;;;;;;;4.50;97.50;;;;;;5028507;28;19962;-70
2021/04/12 10:19:47;;;;;;;;;;;5.10;97.20;;;;;;5025075;28;19981;-70
2021/04/12 10:22:16;;;;;;;;;;;5.60;95.40;;;;;;5015632;28;20291;-70
2021/04/12 10:24:48;;;;;;;;;;;6.10;93.90;;;;;;5017553;28;19917;-70
2021/04/12 10:27:19;;;;;;;;;;;6.50;92.40;;;;;;5017312;28;19921;-72
2021/04/12 10:29:46;;;;;;;;;;;6.60;92.30;;;;;;5017066;28;20337;-72
2021/04/12 10:32:14;;;;;;;;;;;6.80;90.50;;;;;;5021192;28;19917;-71
2021/04/12 10:34:44;;;;;;;;;;;6.60;87.80;;;;;;5050300;28;19913;-72
2021/04/12 10:37:29;;;;;;;;;;;5.90;89.70;;;;;;5029894;28;20000;-72
2021/04/12 10:40:03;;;;;;;;;;;5.50;92.50;;;;;;5035945;28;19913;-72
2021/04/12 10:42:47;;;;;;;;;;;5.10;92.70;;;;;;5034370;28;19924;-72
2021/04/12 10:45:19;;;;;;;;;;;4.80;93.20;;;;;;5036035;28;19909;-70
2021/04/12 10:48:21;;;;;;;;;;;4.70;91.30;;;;;;5027747;28;19913;-73
2021/04/12 10:50:56;;;;;;;;;;;4.70;92.10;;;;;;4980145;28;19914;-70
2021/04/12 10:53:21;;;;;;;;;;;4.90;93.10;;;;;;5022282;28;19925;-70
2021/04/12 10:55:51;;;;;;;;;;;5.30;91.10;;;;;;5026405;28;20016;-70
2021/04/12 10:58:23;;;;;;;;;;;5.30;87.80;;;;;;5028638;28;19924;-70
2021/04/12 11:01:06;;;;;;;;;;;5.40;89.50;;;;;;5025307;28;19983;-70
2021/04/12 11:03:40;;;;;;;;;;;5.70;89.70;;;;;;5015876;28;19913;-70
2021/04/12 11:06:26;;;;;;;;;;;6.00;87.10;;;;;;5018722;28;19920;-70
2021/04/12 11:09:03;;;;;;;;;;;6.00;86.20;;;;;;5031006;28;19959;-69
2021/04/12 11:11:36;;;;;;;;;;;6.10;88.20;;;;;;5034209;28;19967;-69
2021/04/12 11:14:21;;;;;;;;;;;6.80;85.60;;;;;;5028599;28;20330;-68
2021/04/12 11:17:14;;;;;;;;;;;7.40;85.30;;;;;;5035643;28;19913;-69
2021/04/12 11:19:58;;;;;;;;;;;7.60;83.20;;;;;;5029992;28;20341;-69
2021/04/12 11:22:59;;;;;;;;;;;7.50;83.10;;;;;;5018700;28;20011;-70
2021/04/12 11:25:47;;;;;;;;;;;7.30;82.20;;;;;;4993496;28;19918;-71
2021/04/12 11:28:15;;;;;;;;;;;7.00;83.50;;;;;;5030901;28;19914;-69
2021/04/12 11:30:59;;;;;;;;;;;7.30;84.90;;;;;;5026249;28;20321;-69
2021/04/12 11:33:42;;;;;;;;;;;7.60;83.60;;;;;;5028283;28;20266;-68
2021/04/12 11:36:20;;;;;;;;;;;7.80;81.70;;;;;;5018477;28;19913;-69
2021/04/12 11:39:04;;;;;;;;;;;7.60;80.70;;;;;;5027177;28;19917;-70
2021/04/12 11:41:50;;;;;;;;;;;8.00;81.00;;;;;;5025933;28;19917;-68
2021/04/12 11:44:42;;;;;;;;;;;8.80;78.20;;;;;;5028825;28;20265;-69
2021/04/12 11:47:10;;;;;;;;;;;9.30;75.60;;;;;;5028958;28;20318;-69
2021/04/12 11:49:55;;;;;;;;;;;9.20;75.70;;;;;;5035199;28;19916;-68
2021/04/12 11:52:23;;;;;;;;;;;9.40;76.00;;;;;;5036029;28;19924;-67
2021/04/12 11:55:01;;;;;;;;;;;9.50;74.20;;;;;;5038682;28;19917;-67
2021/04/12 11:57:45;;;;;;;;;;;8.40;74.10;;;;;;5022097;28;19943;-68
2021/04/12 12:00:43;;;;;;;;;;;7.90;77.10;;;;;;5030744;28;19931;-68
2021/04/12 12:03:11;;;;;;;;;;;8.60;76.30;;;;;;5007187;28;19968;-68
2021/04/12 12:05:39;;;;;;;;;;;8.10;75.60;;;;;;5024278;28;19919;-67
2021/04/12 12:08:08;;;;;;;;;;;7.80;77.80;;;;;;5052905;28;20222;-69
2021/04/12 12:10:43;;;;;;;;;;;7.50;76.70;;;;;;5045162;28;20003;-67
2021/04/12 12:13:09;;;;;;;;;;;7.20;77.90;;;;;;5030355;28;20258;-66
2021/04/12 12:15:53;;;;;;;;;;;7.10;77.50;;;;;;5026160;28;19978;-68
2021/04/12 12:18:35;;;;;;;;;;;7.30;75.70;;;;;;5035078;28;20409;-68
2021/04/12 12:21:13;;;;;;;;;;;7.60;75.10;;;;;;5032711;28;19967;-68
2021/04/12 12:23:47;;;;;;;;;;;7.40;74.30;;;;;;5033929;28;19917;-68
2021/04/12 12:26:24;;;;;;;;;;;6.80;76.30;;;;;;5036705;28;19920;-69
2021/04/12 12:28:50;;;;;;;;;;;6.30;78.20;;;;;;5023610;28;19961;-68
2021/04/12 12:31:34;;;;;;;;;;;5.90;77.80;;;;;;5033247;28;19952;-69
2021/04/12 12:34:16;;;;;;;;;;;5.40;79.50;;;;;;5031646;28;20372;-69
2021/04/12 12:36:49;;;;;;;;;;;5.20;80.80;;;;;;5034163;28;19920;-69
2021/04/12 12:39:27;;;;;;;;;;;5.30;80.00;;;;;;5037643;28;19936;-70
2021/04/12 12:41:54;;;;;;;;;;;5.50;82.80;;;;;;5032117;28;19916;-71
2021/04/12 12:44:23;;;;;;;;;;;5.90;81.70;;;;;;5037321;28;19913;-69
2021/04/12 12:46:49;;;;;;;;;;;5.90;79.40;;;;;;5037516;28;19936;-71
2021/04/12 12:49:18;;;;;;;;;;;6.60;78.30;;;;;;5031095;28;19960;-70
2021/04/12 12:51:55;;;;;;;;;;;7.80;75.50;;;;;;5020391;28;19944;-70
2021/04/12 12:54:24;;;;;;;;;;;8.60;71.70;;;;;;5036459;28;19979;-69
2021/04/12 12:56:51;;;;;;;;;;;8.20;71.60;;;;;;5036972;28;19956;-68
2021/04/12 12:59:26;;;;;;;;;;;7.90;72.80;;;;;;5021434;28;19921;-68
2021/04/12 13:02:11;;;;;;;;;;;7.30;74.60;;;;;;5021722;28;19917;-68
2021/04/12 13:04:37;;;;;;;;;;;7.50;72.00;;;;;;5047841;28;20229;-67
2021/04/12 13:07:13;;;;;;;;;;;7.30;71.90;;;;;;5026945;28;19921;-67
2021/04/12 13:09:52;;;;;;;;;;;7.00;74.40;;;;;;5035007;28;19917;-67
2021/04/12 13:12:18;;;;;;;;;;;6.90;74.30;;;;;;5020549;28;20226;-67
2021/04/12 13:14:44;;;;;;;;;;;6.90;75.40;;;;;;5036078;28;19913;-67
2021/04/12 13:17:29;;;;;;;;;;;6.80;75.50;;;;;;5037409;28;19910;-67
2021/04/12 13:19:57;;;;;;;;;;;6.90;76.10;;;;;;5037374;28;19909;-66
2021/04/12 13:22:30;;;;;;;;;;;6.80;76.20;;;;;;5035176;28;19936;-67
2021/04/12 13:25:19;;;;;;;;;;;6.90;76.50;;;;;;5036052;28;19943;-66
2021/04/12 13:28:04;;;;;;;;;;;6.90;76.80;;;;;;5024629;28;19913;-67
2021/04/12 13:30:32;;;;;;;;;;;6.70;76.60;;;;;;5034039;28;20221;-67
2021/04/12 13:33:05;;;;;;;;;;;6.60;76.10;;;;;;5022717;28;20182;-66
2021/04/12 13:35:33;;;;;;;;;;;6.20;77.80;;;;;;5026555;28;20249;-68
2021/04/12 13:37:59;;;;;;;;;;;6.00;79.50;;;;;;5031584;28;20310;-68
2021/04/12 13:40:31;;;;;;;;;;;5.70;77.50;;;;;;5027654;28;19913;-67
2021/04/12 13:43:08;;;;;;;;;;;5.60;78.00;;;;;;5032436;28;19919;-69
2021/04/12 13:45:35;;;;;;;;;;;5.40;78.10;;;;;;5036046;28;19923;-68
2021/04/12 13:48:05;;;;;;;;;;;5.40;79.20;;;;;;5034881;28;19917;-68
2021/04/12 13:50:38;;;;;;;;;;;5.80;78.80;;;;;;5029648;28;19913;-68
2021/04/12 13:53:07;;;;;;;;;;;6.00;79.00;;;;;;5030396;28;19933;-68
2021/04/12 13:55:41;;;;;;;;;;;6.30;78.70;;;;;;5017828;28;19913;-68
2021/04/12 13:58:09;;;;;;;;;;;6.70;78.70;;;;;;5033229;28;19913;-68
2021/04/12 14:00:38;;;;;;;;;;;7.00;79.00;;;;;;5034793;28;19913;-66
2021/04/12 14:03:13;;;;;;;;;;;7.30;77.60;;;;;;5028512;28;19916;-68
2021/04/12 14:05:40;;;;;;;;;;;7.30;76.60;;;;;;5036153;28;20318;-67
2021/04/12 14:08:22;;;;;;;;;;;7.00;76.20;;;;;;5033998;28;20007;-68
2021/04/12 14:10:47;;;;;;;;;;;6.50;76.40;;;;;;5028958;28;19920;-67
2021/04/12 14:13:19;;;;;;;;;;;6.60;76.70;;;;;;5031751;28;19917;-68
2021/04/12 14:15:45;;;;;;;;;;;6.50;77.00;;;;;;5035514;28;19913;-66
2021/04/12 14:18:12;;;;;;;;;;;6.40;76.60;;;;;;5033459;28;19921;-69
2021/04/12 14:20:42;;;;;;;;;;;6.30;76.80;;;;;;5026113;28;19969;-68
2021/04/12 14:23:28;;;;;;;;;;;6.70;77.60;;;;;;5032028;28;19960;-67
2021/04/12 14:25:58;;;;;;;;;;;7.10;76.20;;;;;;5034145;28;19917;-67
2021/04/12 14:28:27;;;;;;;;;;;7.00;75.40;;;;;;5035674;28;20316;-69
2021/04/12 14:30:52;;;;;;;;;;;6.50;75.90;;;;;;5028382;28;20279;-68
2021/04/12 14:33:23;;;;;;;;;;;5.80;77.20;;;;;;5016366;28;20008;-69
2021/04/12 14:35:50;;;;;;;;;;;5.60;80.40;;;;;;5025197;28;20206;-68
2021/04/12 14:38:17;;;;;;;;;;;5.60;80.50;;;;;;5034622;28;19913;-68
2021/04/12 14:40:50;;;;;;;;;;;5.40;80.80;;;;;;5034117;28;19916;-69
2021/04/12 14:43:18;;;;;;;;;;;5.20;81.00;;;;;;5030648;28;19914;-68
2021/04/12 14:45:48;;;;;;;;;;;5.10;80.40;;;;;;5034058;28;19913;-68
2021/04/12 14:48:13;;;;;;;;;;;5.00;81.00;;;;;;5037123;28;20326;-68
2021/04/12 14:50:59;;;;;;;;;;;5.00;80.40;;;;;;5036755;28;19910;-68
2021/04/12 14:53:28;;;;;;;;;;;4.80;81.30;;;;;;5043558;28;19929;-68
2021/04/12 14:55:55;;;;;;;;;;;4.70;83.20;;;;;;5029173;28;19920;-68
2021/04/12 14:58:25;;;;;;;;;;;4.80;82.00;;;;;;5037096;28;20011;-69
2021/04/12 15:00:52;;;;;;;;;;;5.00;80.90;;;;;;5032547;28;20324;-68
2021/04/12 15:03:21;;;;;;;;;;;5.50;80.40;;;;;;5034548;28;20326;-67
2021/04/12 15:05:55;;;;;;;;;;;5.70;78.80;;;;;;5034693;28;19989;-67
2021/04/12 15:08:24;;;;;;;;;;;5.90;79.10;;;;;;5034647;28;19913;-68
2021/04/12 15:10:54;;;;;;;;;;;6.20;79.00;;;;;;5034857;28;19913;-69
2021/04/12 15:13:32;;;;;;;;;;;6.50;78.20;;;;;;5034458;28;19952;-67
2021/04/12 15:16:06;;;;;;;;;;;6.10;76.00;;;;;;5034699;28;19940;-68
2021/04/12 15:18:36;;;;;;;;;;;5.90;75.70;;;;;;5033729;28;20206;-67
2021/04/12 15:21:05;;;;;;;;;;;6.20;76.10;;;;;;5026362;28;19913;-68
2021/04/12 15:23:35;;;;;;;;;;;6.30;75.10;;;;;;5033132;28;20328;-68
2021/04/12 15:26:10;;;;;;;;;;;6.70;74.10;;;;;;5031465;28;20257;-68